Terminal Aerodrome Forecast
Issued by NWS Detroit/Pontiac, MI

Home | Current Version | Previous Version | Text Only | Print | Product List | Glossary On
Versions: 1 2 3 4 5 6 7 8 9 10 11 12 13 14 15 16 17 18 19 20 21 22 23 24 25
000
FTUS43 KDTX 010520
TAFDTW
TAF
KDTW 010520Z 0106/0212 34015G25KT 6SM -SN OVC015
     FM011000 36015G25KT P6SM OVC015
     FM011600 36015G25KT P6SM OVC025
     FM012200 36013KT P6SM BKN035
     FM020100 33007KT P6SM SCT035=

USA.gov is the U.S. government's official web portal to all federal, state and local government web resources and services.